Time;durP1;ratioP1;P1;durP2;ratioP2;P2;SDS_P1;SDS_P2;PMS_P1;PMS_P2;Temp;Humidity;BMP_temperature;BMP_pressure;BME280_temperature;BME280_humidity;BME280_pressure;Samples;Min_cycle;Max_cycle;Signal;HPM_P1;HPM_P2
2022/06/10 00:02:50;;;;;;;7.25;3.83;;;;;;;11.66;79.30;102035.69;10410809;28;20076;-77
2022/06/10 00:08:01;;;;;;;5.78;3.50;;;;;;;11.65;79.52;102028.81;10410741;28;20492;-76
2022/06/10 00:13:04;;;;;;;6.30;3.60;;;;;;;11.67;77.62;102027.13;10410798;28;20460;-75
2022/06/10 00:18:06;;;;;;;6.78;4.00;;;;;;;11.33;78.95;102030.97;10411505;28;20137;-76
2022/06/10 00:23:13;;;;;;;7.30;4.30;;;;;;;11.33;79.94;102035.22;10409925;28;20501;-76
2022/06/10 00:28:15;;;;;;;7.80;4.40;;;;;;;11.42;79.63;102041.66;10411511;28;20033;-76
2022/06/10 00:33:17;;;;;;;12.38;4.93;;;;;;;11.54;77.80;102030.06;10407061;28;20072;-77
2022/06/10 00:38:19;;;;;;;8.60;4.80;;;;;;;11.51;77.28;102024.75;10409020;28;20072;-76
2022/06/10 00:43:26;;;;;;;7.82;4.28;;;;;;;11.62;77.30;102028.66;10414110;28;20124;-76
2022/06/10 00:48:49;;;;;;;10.05;4.20;;;;;;;11.47;77.48;102021.19;10417085;28;20072;-77
2022/06/10 00:53:58;;;;;;;10.40;4.53;;;;;;;11.54;77.37;102012.84;10398620;28;20493;-76
2022/06/10 00:59:15;;;;;;;9.77;4.43;;;;;;;11.40;77.82;102014.00;10416054;28;20072;-76
2022/06/10 01:04:19;;;;;;;6.65;4.30;;;;;;;11.16;79.45;102021.63;10417391;28;20048;-76
2022/06/10 01:09:21;;;;;;;8.02;4.60;;;;;;;11.05;79.50;102019.50;10417529;28;20041;-77
2022/06/10 01:14:57;;;;;;;10.48;5.07;;;;;;;10.90;80.00;102018.84;10417462;28;20046;-76
2022/06/10 01:20:26;;;;;;;11.23;4.03;;;;;;;11.10;79.70;102022.25;10415186;28;20052;-76
2022/06/10 01:25:53;;;;;;;7.90;4.32;;;;;;;11.00;79.77;102021.00;10411533;28;20472;-76
2022/06/10 01:31:33;;;;;;;8.00;4.25;;;;;;;11.00;79.68;102023.56;10415214;28;20245;-75
2022/06/10 01:36:48;;;;;;;7.45;4.50;;;;;;;10.92;79.68;102012.03;10416409;28;20049;-76
2022/06/10 01:42:11;;;;;;;11.45;4.50;;;;;;;10.92;79.60;102012.03;10415331;28;20555;-75
2022/06/10 01:47:24;;;;;;;9.85;4.43;;;;;;;10.95;80.08;102010.47;10397366;28;20061;-76
2022/06/10 01:52:50;;;;;;;6.80;4.40;;;;;;;10.86;80.15;102011.78;10414818;28;20387;-76
2022/06/10 01:57:59;;;;;;;12.30;4.53;;;;;;;10.81;80.04;102014.16;10413754;28;20045;-76
2022/06/10 02:03:21;;;;;;;5.45;3.45;;;;;;;10.70;80.27;102021.44;10404814;28;20099;-76
2022/06/10 02:08:30;;;;;;;6.60;4.32;;;;;;;10.60;80.18;102024.47;10413427;28;20047;-76
2022/06/10 02:13:56;;;;;;;9.15;4.70;;;;;;;10.70;80.70;102025.72;10412624;28;20103;-75
2022/06/10 02:19:16;;;;;;;5.95;3.80;;;;;;;10.50;81.57;102027.44;10413713;28;20045;-76
2022/06/10 02:24:50;;;;;;;8.13;4.10;;;;;;;10.52;80.74;102028.38;10414602;28;20050;-76
2022/06/10 02:30:01;;;;;;;7.40;4.05;;;;;;;10.23;81.48;102022.78;10408683;28;20091;-76
2022/06/10 02:35:04;;;;;;;10.35;4.32;;;;;;;10.27;81.44;102025.56;10412701;28;20439;-76
2022/06/10 02:40:09;;;;;;;6.35;4.38;;;;;;;10.14;81.82;102033.53;10412663;28;20048;-75
2022/06/10 02:45:20;;;;;;;19.10;4.38;;;;;;;10.60;80.57;102039.91;10394875;28;20096;-75
2022/06/10 02:50:21;;;;;;;11.25;4.53;;;;;;;10.71;79.59;102036.09;10413437;28;20037;-75
2022/06/10 02:55:26;;;;;;;8.52;4.32;;;;;;;10.62;79.92;102038.25;10412860;28;20087;-77
2022/06/10 03:06:14;;;;;;;;;;;;;;;10.77;79.66;102044.09;10410626;28;20053;-75
2022/06/10 03:11:45;;;;;;;8.18;4.35;;;;;;;10.69;79.63;102047.16;10411565;28;20418;-76
2022/06/10 03:17:29;;;;;;;12.75;6.03;;;;;;;10.71;79.44;102053.28;10405274;28;20065;-76
2022/06/10 03:23:04;;;;;;;6.82;4.22;;;;;;;10.89;79.31;102054.06;10412307;28;20099;-76
2022/06/10 03:28:25;;;;;;;10.77;4.63;;;;;;;10.95;79.78;102053.44;10412316;28;20685;-77
2022/06/10 03:33:43;;;;;;;9.20;5.07;;;;;;;11.19;78.97;102047.56;10410084;28;20049;-76
2022/06/10 03:38:49;;;;;;;9.57;5.32;;;;;;;11.35;79.11;102042.22;10401889;28;20049;-77
2022/06/10 03:43:53;;;;;;;13.60;5.38;;;;;;;11.51;79.84;102033.41;10408071;28;20061;-76
2022/06/10 03:48:57;;;;;;;11.30;5.97;;;;;;;11.67;80.87;102042.63;10406270;28;20046;-77
2022/06/10 03:53:59;;;;;;;11.60;6.30;;;;;;;11.90;80.55;102050.41;10412393;28;20047;-76
2022/06/10 03:59:02;;;;;;;13.35;6.28;;;;;;;12.00;81.05;102049.06;10413044;28;20041;-77
2022/06/10 04:04:03;;;;;;;10.65;6.25;;;;;;;12.21;80.69;102057.63;10412244;28;20092;-75
2022/06/10 04:09:05;;;;;;;11.52;6.32;;;;;;;12.28;80.95;102058.75;10410531;28;20400;-75
2022/06/10 04:14:07;;;;;;;13.60;6.03;;;;;;;12.31;80.54;102058.88;10410439;28;20129;-76
2022/06/10 04:19:12;;;;;;;16.95;7.13;;;;;;;12.44;80.87;102067.94;10417032;28;20370;-75
2022/06/10 04:24:13;;;;;;;11.65;6.57;;;;;;;12.65;80.67;102069.59;10419322;28;20053;-76
2022/06/10 04:29:15;;;;;;;15.07;7.00;;;;;;;12.81;79.75;102071.00;10418758;28;20045;-75
2022/06/10 04:34:17;;;;;;;13.55;6.55;;;;;;;12.93;80.12;102076.59;10418638;28;20110;-76
2022/06/10 04:39:19;;;;;;;16.08;7.43;;;;;;;12.98;80.39;102069.91;10422231;28;20103;-77
2022/06/10 04:44:21;;;;;;;18.55;5.97;;;;;;;13.08;80.01;102075.38;10439106;28;20104;-77
2022/06/10 04:49:22;;;;;;;12.80;6.20;;;;;;;13.15;79.80;102079.91;10426273;28;20049;-76
2022/06/10 04:54:24;;;;;;;15.57;6.40;;;;;;;13.14;80.26;102081.63;10418712;28;20046;-77
2022/06/10 04:59:26;;;;;;;18.83;6.95;;;;;;;13.24;79.93;102085.41;10417784;28;20121;-77
2022/06/10 05:04:32;;;;;;;14.95;6.78;;;;;;;13.33;79.71;102093.50;10417671;28;20123;-76
2022/06/10 05:09:34;;;;;;;11.77;7.20;;;;;;;13.41;79.59;102101.53;10415573;28;20033;-76
2022/06/10 05:14:36;;;;;;;13.30;7.25;;;;;;;13.38;79.54;102105.69;10408686;28;20049;-76
2022/06/10 05:19:37;;;;;;;14.50;7.47;;;;;;;13.59;79.23;102108.16;10417095;28;20049;-76
2022/06/10 05:24:39;;;;;;;15.02;6.40;;;;;;;13.83;78.88;102109.78;10415510;28;20053;-75
2022/06/10 05:29:41;;;;;;;18.90;6.35;;;;;;;13.98;78.25;102109.38;10415384;28;20485;-76
2022/06/10 05:34:46;;;;;;;16.90;5.88;;;;;;;14.01;79.39;102115.53;10415073;28;20099;-75
2022/06/10 05:39:48;;;;;;;11.50;4.88;;;;;;;13.76;81.40;102121.66;10415603;28;20077;-76
2022/06/10 05:44:51;;;;;;;10.00;4.15;;;;;;;13.73;83.91;102121.56;10414955;28;20053;-77
2022/06/10 05:49:56;;;;;;;21.02;5.03;;;;;;;13.52;86.07;102122.59;10415178;28;20050;-76
2022/06/10 05:55:00;;;;;;;17.00;5.57;;;;;;;13.58;86.72;102129.69;10414234;28;20520;-77
2022/06/10 06:00:04;;;;;;;16.30;4.47;;;;;;;13.68;87.65;102136.06;10414629;28;20441;-76
2022/06/10 06:05:07;;;;;;;12.20;4.65;;;;;;;13.71;88.18;102133.59;10415439;28;20049;-77
2022/06/10 06:10:14;;;;;;;13.23;4.18;;;;;;;14.01;87.68;102131.09;10413477;28;20045;-77
2022/06/10 06:15:16;;;;;;;12.52;3.63;;;;;;;14.08;88.33;102127.84;10412108;28;20053;-77
2022/06/10 06:20:20;;;;;;;8.57;4.25;;;;;;;14.47;87.41;102128.13;10413594;28;20133;-76
2022/06/10 06:25:22;;;;;;;7.60;4.47;;;;;;;14.51;87.64;102127.41;10412539;28;20057;-76
2022/06/10 06:30:30;;;;;;;9.43;3.85;;;;;;;14.60;87.16;102133.72;10403377;28;20046;-77
2022/06/10 06:35:34;;;;;;;7.88;3.45;;;;;;;14.78;87.18;102132.50;10404308;28;20551;-76
2022/06/10 06:40:36;;;;;;;14.82;4.35;;;;;;;14.96;86.45;102131.28;10411768;28;20489;-77
2022/06/10 06:45:38;;;;;;;12.80;4.65;;;;;;;15.30;85.71;102127.88;10413223;28;20046;-76
2022/06/10 06:50:49;;;;;;;13.18;4.32;;;;;;;15.27;85.49;102132.09;10411899;28;20060;-76
2022/06/10 06:55:51;;;;;;;12.15;4.20;;;;;;;15.14;85.18;102136.97;10413273;28;20037;-76
2022/06/10 07:00:53;;;;;;;14.18;5.32;;;;;;;15.67;83.89;102128.78;10412002;28;20121;-76
2022/06/10 07:05:55;;;;;;;13.05;4.65;;;;;;;15.60;83.58;102136.41;10412992;28;20100;-76
2022/06/10 07:11:04;;;;;;;12.70;4.65;;;;;;;15.59;82.97;102135.50;10412542;28;20042;-76
2022/06/10 07:16:06;;;;;;;7.15;4.53;;;;;;;15.98;81.49;102128.66;10411805;28;20448;-77
2022/06/10 07:21:08;;;;;;;12.18;4.25;;;;;;;16.31;81.42;102132.88;10408878;28;20041;-77
2022/06/10 07:26:13;;;;;;;10.73;4.13;;;;;;;16.40;80.17;102138.28;10412135;28;20480;-75
2022/06/10 07:31:14;;;;;;;9.65;4.05;;;;;;;16.37;78.95;102135.59;10408575;28;20547;-76
2022/06/10 07:36:16;;;;;;;7.07;4.20;;;;;;;16.45;78.42;102131.44;10409096;28;20540;-75
2022/06/10 07:46:42;;;;;;;12.88;4.13;;;;;;;17.05;77.20;102131.78;10405930;28;20053;-76
2022/06/10 07:51:53;;;;;;;13.88;4.90;;;;;;;17.12;74.82;102136.28;10412142;28;20067;-77
2022/06/10 07:57:20;;;;;;;15.82;5.13;;;;;;;18.03;72.52;102118.66;10413909;28;20048;-76
2022/06/10 08:02:21;;;;;;;9.70;4.10;;;;;;;18.00;72.09;102121.22;10419968;28;20049;-75
2022/06/10 08:08:29;;;;;;;10.80;4.60;;;;;;;18.00;74.28;102129.03;10417379;28;20492;-76
2022/06/10 08:13:32;;;;;;;12.50;4.43;;;;;;;17.80;73.43;102128.72;10415056;28;20049;-75
2022/06/10 08:18:37;;;;;;;9.98;3.95;;;;;;;18.34;72.25;102134.75;10418943;28;20485;-75
2022/06/10 08:24:08;;;;;;;7.60;3.63;;;;;;;17.79;72.46;102133.91;10413126;28;20045;-75
2022/06/10 08:36:13;;;;;;;6.78;2.70;;;;;;;18.05;71.59;102132.63;10416035;28;20067;-76
2022/06/10 08:41:33;;;;;;;8.40;3.55;;;;;;;18.23;72.33;102131.09;10419342;28;20034;-76
2022/06/10 08:47:12;;;;;;;11.02;3.75;;;;;;;18.15;71.09;102132.72;10427928;28;20053;-76
2022/06/10 08:52:39;;;;;;;10.90;3.20;;;;;;;18.34;71.65;102123.41;10417322;28;20071;-75
2022/06/10 08:57:44;;;;;;;10.05;3.03;;;;;;;18.27;70.39;102127.69;10418453;28;20033;-76
2022/06/10 09:03:05;;;;;;;13.55;2.85;;;;;;;18.85;70.57;102131.88;10417542;28;20037;-76
2022/06/10 09:08:15;;;;;;;17.27;2.90;;;;;;;18.70;69.57;102119.50;10442224;28;20580;-76
2022/06/10 09:13:40;;;;;;;8.98;2.72;;;;;;;18.39;68.36;102122.63;10419141;28;20046;-78
2022/06/10 09:18:44;;;;;;;6.60;2.15;;;;;;;18.95;68.97;102123.28;10418238;28;20037;-76
2022/06/10 09:23:58;;;;;;;6.20;1.65;;;;;;;18.73;67.70;102129.13;10418650;28;20068;-76
2022/06/10 09:29:00;;;;;;;8.18;2.22;;;;;;;18.84;66.41;102124.91;10417624;28;20048;-75
2022/06/10 09:34:40;;;;;;;7.03;1.90;;;;;;;19.25;65.30;102116.63;10415919;28;20049;-75
2022/06/10 09:40:38;;;;;;;8.87;2.13;;;;;;;20.52;63.93;102104.38;10417287;28;20304;-77
2022/06/10 09:45:53;;;;;;;5.97;2.15;;;;;;;20.31;65.38;102112.13;10249269;29;20415;-75
2022/06/10 09:51:19;;;;;;;8.20;2.05;;;;;;;20.36;61.59;102110.44;10287813;28;20135;-76
2022/06/10 09:56:50;;;;;;;5.28;1.73;;;;;;;20.66;62.66;102108.81;10411087;28;20041;-77
2022/06/10 10:02:12;;;;;;;4.18;1.38;;;;;;;20.63;63.20;102114.03;10405966;28;20104;-77
2022/06/10 10:07:32;;;;;;;8.52;1.85;;;;;;;20.86;62.62;102107.13;10413427;28;20111;-76
2022/06/10 10:13:12;;;;;;;7.13;2.00;;;;;;;20.73;63.62;102106.22;10412107;28;20134;-76
2022/06/10 10:18:39;;;;;;;5.97;1.95;;;;;;;21.31;61.53;102103.69;10409972;28;20076;-76
2022/06/10 10:23:48;;;;;;;4.50;1.73;;;;;;;20.96;60.75;102097.53;10429022;28;20203;-78
2022/06/10 10:28:57;;;;;;;6.70;1.83;;;;;;;20.98;59.76;102100.16;10414344;28;20049;-77
2022/06/10 10:34:02;;;;;;;8.27;2.20;;;;;;;21.30;61.54;102087.06;10415119;28;20346;-76
2022/06/10 10:39:34;;;;;;;12.20;2.50;;;;;;;21.02;60.92;102099.31;10413857;28;20099;-77
2022/06/10 10:44:44;;;;;;;5.25;1.67;;;;;;;21.79;58.08;102086.19;10422025;28;20045;-76
2022/06/10 10:49:56;;;;;;;6.85;1.90;;;;;;;21.05;59.97;102096.69;10422033;28;20041;-75
2022/06/10 10:55:12;;;;;;;5.72;1.80;;;;;;;20.74;58.32;102091.38;10407111;28;20050;-77
2022/06/10 11:00:55;;;;;;;10.18;2.97;;;;;;;21.55;57.27;102087.06;10416623;28;20049;-76
2022/06/10 11:06:00;;;;;;;7.68;2.08;;;;;;;21.05;59.12;102094.06;10411072;28;20048;-75
2022/06/10 11:11:17;;;;;;;10.43;2.20;;;;;;;21.13;57.77;102088.84;10413585;28;20506;-76
2022/06/10 11:17:13;;;;;;;4.43;1.95;;;;;;;20.95;58.00;102085.31;10413040;28;20045;-76
2022/06/10 11:22:36;;;;;;;7.95;1.98;;;;;;;22.53;57.35;102078.94;10410341;28;20099;-75
2022/06/10 11:27:40;;;;;;;6.72;3.15;;;;;;;22.17;56.62;102077.34;10409422;28;20041;-75
2022/06/10 11:32:48;;;;;;;7.22;2.63;;;;;;;22.44;56.00;102075.50;10411562;28;20396;-76
2022/06/10 11:37:54;;;;;;;7.10;2.65;;;;;;;22.40;56.91;102073.75;10403028;28;20081;-75
2022/06/10 11:43:28;;;;;;;8.95;2.25;;;;;;;21.67;56.86;102065.25;10411090;28;20467;-76
2022/06/10 11:48:40;;;;;;;11.10;2.65;;;;;;;21.79;56.90;102073.06;10411285;28;20045;-75
2022/06/10 11:54:12;;;;;;;8.30;3.22;;;;;;;21.87;57.74;102067.81;10402301;28;20068;-77
2022/06/10 12:05:16;;;;;;;10.00;3.27;;;;;;;21.80;57.37;102066.97;10402100;28;20054;-75
2022/06/10 12:10:23;;;;;;;10.35;3.67;;;;;;;21.28;58.87;102062.63;10412721;28;20407;-75
2022/06/10 12:15:37;;;;;;;9.88;3.75;;;;;;;21.30;58.75;102066.09;10419302;28;20076;-75
2022/06/10 12:20:59;;;;;;;7.72;2.83;;;;;;;21.08;60.14;102066.13;10411414;28;20033;-74
2022/06/10 12:26:12;;;;;;;10.35;4.00;;;;;;;21.27;59.49;102065.25;10406590;28;20057;-76
2022/06/10 12:31:51;;;;;;;13.02;3.40;;;;;;;21.18;59.12;102059.16;10411062;28;20042;-75
2022/06/10 12:37:27;;;;;;;6.70;3.20;;;;;;;21.60;59.15;102053.88;10394596;28;20049;-75
2022/06/10 12:42:38;;;;;;;12.27;3.25;;;;;;;21.78;59.90;102052.97;10419004;28;20041;-76
2022/06/10 12:47:40;;;;;;;9.05;2.90;;;;;;;22.32;59.35;102050.16;10418376;28;20485;-74
2022/06/10 12:52:48;;;;;;;14.50;3.30;;;;;;;21.90;58.33;102043.31;10418625;28;20052;-75
2022/06/10 12:57:50;;;;;;;18.17;4.38;;;;;;;23.06;55.42;102043.56;10420069;28;20053;-75
2022/06/10 13:02:57;;;;;;;6.68;2.65;;;;;;;22.85;54.70;102043.72;10414714;28;20041;-75
2022/06/10 13:08:01;;;;;;;10.63;3.10;;;;;;;23.35;56.01;102031.09;10417477;28;20056;-74
2022/06/10 13:13:14;;;;;;;7.93;2.92;;;;;;;23.06;56.51;102037.44;10417160;28;20060;-76
2022/06/10 13:19:13;;;;;;;7.38;3.17;;;;;;;22.62;56.84;102037.78;10415114;28;20033;-75
2022/06/10 13:24:15;;;;;;;6.97;2.67;;;;;;;22.77;55.21;102031.53;10417173;28;20046;-75
2022/06/10 13:29:21;;;;;;;6.85;2.53;;;;;;;22.65;57.17;102032.47;10417494;28;20440;-75
2022/06/10 13:34:38;;;;;;;7.22;2.40;;;;;;;22.34;57.01;102027.38;10417147;28;20041;-74
2022/06/10 13:39:50;;;;;;;6.90;2.35;;;;;;;22.31;55.47;102031.75;10417119;28;20045;-75
2022/06/10 13:44:51;;;;;;;7.18;2.47;;;;;;;22.63;56.14;102029.00;10417089;28;20570;-75
2022/06/10 13:55:30;;;;;;;5.38;2.28;;;;;;;22.56;57.26;102034.28;10435651;28;20045;-75
2022/06/10 14:00:57;;;;;;;9.75;2.50;;;;;;;21.99;57.16;102027.56;10417667;28;20496;-74
2022/06/10 14:06:26;;;;;;;8.02;2.58;;;;;;;21.89;57.73;102028.47;10403185;28;20408;-74
2022/06/10 14:11:38;;;;;;;7.13;2.20;;;;;;;22.40;55.88;102026.50;10414949;28;20091;-74
2022/06/10 14:16:40;;;;;;;8.25;2.20;;;;;;;22.56;57.32;102031.66;10408686;28;20443;-74
2022/06/10 14:21:43;;;;;;;6.55;2.70;;;;;;;22.67;58.06;102021.97;10414961;28;20493;-75
2022/06/10 14:26:56;;;;;;;10.75;2.47;;;;;;;22.36;56.44;102019.50;10414242;28;20095;-74
2022/06/10 14:32:16;;;;;;;5.82;1.98;;;;;;;21.93;58.14;102020.56;10413077;28;20107;-75
2022/06/10 14:37:23;;;;;;;8.18;2.70;;;;;;;22.32;58.18;102030.88;10412511;28;20103;-74
2022/06/10 14:42:41;;;;;;;6.88;2.72;;;;;;;22.15;58.26;102021.34;10412157;28;20449;-74
2022/06/10 14:48:05;;;;;;;6.75;2.58;;;;;;;22.88;57.09;102022.69;10408472;28;20104;-74
2022/06/10 14:53:21;;;;;;;12.48;2.70;;;;;;;22.34;57.62;102021.25;10412204;28;20096;-75
2022/06/10 14:58:22;;;;;;;19.02;2.80;;;;;;;22.40;57.36;102021.25;10412884;28;20459;-75
2022/06/10 15:03:26;;;;;;;5.53;2.40;;;;;;;22.35;57.13;102023.88;10412289;28;20140;-75
2022/06/10 15:08:28;;;;;;;6.00;2.50;;;;;;;22.41;57.31;102011.66;10405630;28;20084;-74
2022/06/10 15:13:39;;;;;;;7.35;2.65;;;;;;;22.33;56.77;102019.50;10408249;28;20123;-74
2022/06/10 15:18:42;;;;;;;6.53;2.67;;;;;;;22.76;57.52;102010.53;10413356;28;20056;-74
2022/06/10 15:23:47;;;;;;;7.75;2.58;;;;;;;22.54;57.02;102013.31;10401324;28;20050;-74
2022/06/10 15:28:51;;;;;;;5.50;2.20;;;;;;;22.46;57.72;102010.72;10411117;28;20140;-75
2022/06/10 15:33:59;;;;;;;8.10;2.85;;;;;;;22.49;57.32;102010.69;10411743;28;20045;-75
2022/06/10 15:44:37;;;;;;;10.70;2.65;;;;;;;22.15;57.33;102005.59;10410717;28;20510;-74
2022/06/10 15:49:41;;;;;;;8.90;2.75;;;;;;;22.15;58.30;102000.34;10410100;28;20444;-74
2022/06/10 16:00:16;;;;;;;10.32;2.67;;;;;;;22.31;58.59;101995.91;10408823;28;20053;-74
2022/06/10 16:05:29;;;;;;;10.70;2.53;;;;;;;22.26;58.76;102002.94;10411911;28;20045;-74
2022/06/10 16:10:40;;;;;;;6.57;2.45;;;;;;;22.38;59.39;102001.13;10408834;28;20046;-75
2022/06/10 16:15:50;;;;;;;6.95;2.63;;;;;;;22.32;59.94;102002.91;10417658;28;20076;-74
2022/06/10 16:20:58;;;;;;;5.60;2.65;;;;;;;22.20;59.21;102002.94;10420581;28;20049;-74
2022/06/10 16:26:29;;;;;;;8.38;2.90;;;;;;;22.35;59.72;101999.38;10422675;28;20061;-75
2022/06/10 16:31:35;;;;;;;11.00;3.10;;;;;;;22.11;59.52;101993.38;10417967;28;20041;-74
2022/06/10 16:36:37;;;;;;;18.75;3.70;;;;;;;22.03;59.72;102001.31;10418600;28;20051;-75
2022/06/10 16:41:50;;;;;;;5.03;3.10;;;;;;;22.13;61.68;101994.25;10417324;28;20128;-75
2022/06/10 16:47:01;;;;;;;10.63;3.88;;;;;;;21.93;61.80;101994.34;10414006;28;20053;-75
2022/06/10 16:52:07;;;;;;;7.13;2.22;;;;;;;21.98;61.93;101987.31;10418464;28;20045;-74
2022/06/10 16:57:21;;;;;;;8.57;2.60;;;;;;;21.90;61.95;101988.22;10445238;28;20129;-75
2022/06/10 17:02:26;;;;;;;6.90;2.88;;;;;;;21.83;61.54;101983.03;10417000;28;20041;-75
2022/06/10 17:07:32;;;;;;;11.05;3.38;;;;;;;21.90;61.91;101983.00;10415800;28;20045;-75
2022/06/10 17:12:37;;;;;;;7.30;3.10;;;;;;;22.07;61.74;101982.91;10429743;28;20100;-75
2022/06/10 17:17:47;;;;;;;9.52;2.60;;;;;;;22.03;62.06;101977.69;10417566;28;20041;-75
2022/06/10 17:22:51;;;;;;;9.18;2.90;;;;;;;22.09;61.68;101978.53;10411350;28;20451;-75
2022/06/10 17:28:03;;;;;;;7.90;2.53;;;;;;;22.00;62.27;101972.44;10414121;28;20049;-74
2022/06/10 17:33:16;;;;;;;6.40;2.85;;;;;;;21.84;62.17;101976.91;10413283;28;20033;-75
2022/06/10 17:38:28;;;;;;;8.80;2.80;;;;;;;21.76;63.03;101969.91;10411808;28;20464;-75
2022/06/10 17:43:38;;;;;;;7.30;2.25;;;;;;;21.90;63.07;101967.25;10414413;28;20045;-75
2022/06/10 17:48:40;;;;;;;545.63;113.47;;;;;;;21.80;63.83;101966.41;10419091;28;20037;-74
2022/06/10 17:53:41;;;;;;;7.65;2.83;;;;;;;21.82;63.21;101970.78;10409878;28;20037;-74
2022/06/10 17:58:43;;;;;;;9.20;2.80;;;;;;;21.95;62.86;101962.84;10413883;28;20053;-75
2022/06/10 18:03:49;;;;;;;10.82;2.95;;;;;;;21.67;63.32;101962.97;10416210;28;20562;-75
2022/06/10 18:08:51;;;;;;;3.55;2.40;;;;;;;21.84;63.41;101961.16;10411988;28;20056;-75
2022/06/10 18:19:25;;;;;;;9.57;2.72;;;;;;;21.55;63.36;101955.97;10410568;28;20045;-75
2022/06/10 18:24:28;;;;;;;6.60;2.53;;;;;;;21.58;63.94;101956.00;10411803;28;20064;-76
2022/06/10 18:29:54;;;;;;;9.65;2.42;;;;;;;21.49;64.17;101966.50;10411831;28;20049;-74
2022/06/10 18:34:59;;;;;;;9.68;2.58;;;;;;;21.40;64.58;101962.16;10392335;28;20504;-75
2022/06/10 18:40:00;;;;;;;7.45;2.83;;;;;;;21.55;63.94;101966.47;10409956;28;20038;-75
2022/06/10 18:45:03;;;;;;;9.32;3.28;;;;;;;21.24;64.31;101962.19;10410970;28;20055;-74
2022/06/10 18:50:22;;;;;;;5.55;2.67;;;;;;;21.37;65.20;101957.75;10410261;28;20072;-75
2022/06/10 18:55:49;;;;;;;10.52;2.97;;;;;;;21.31;65.52;101959.53;10414069;28;20128;-75
2022/06/10 19:00:55;;;;;;;9.35;3.05;;;;;;;21.13;65.90;101956.06;10420358;28;20058;-74
2022/06/10 19:05:57;;;;;;;9.00;3.42;;;;;;;21.13;66.56;101953.44;10406749;28;20053;-74
2022/06/10 19:10:59;;;;;;;6.75;2.80;;;;;;;21.22;66.52;101956.06;10409091;28;20045;-74
2022/06/10 19:16:10;;;;;;;14.00;2.90;;;;;;;21.33;65.89;101960.41;10411266;28;20045;-74
2022/06/10 19:21:40;;;;;;;6.47;2.60;;;;;;;21.41;65.57;101953.38;10412476;28;20041;-74
2022/06/10 19:26:53;;;;;;;8.10;2.60;;;;;;;21.45;65.09;101955.13;10410883;28;20555;-74
2022/06/10 19:32:03;;;;;;;8.80;2.65;;;;;;;21.26;65.31;101956.94;10419332;28;20045;-77
2022/06/10 19:37:17;;;;;;;8.70;3.05;;;;;;;21.18;65.86;101956.06;10396587;28;20057;-78
2022/06/10 19:42:26;;;;;;;5.70;2.80;;;;;;;21.24;65.67;101956.94;10402188;28;20103;-77
2022/06/10 19:47:45;;;;;;;9.63;2.97;;;;;;;20.97;66.78;101962.19;10389013;28;20045;-78
2022/06/10 19:52:54;;;;;;;8.95;3.25;;;;;;;20.86;67.79;101967.44;10407741;28;20424;-78
2022/06/10 19:58:00;;;;;;;4.65;2.55;;;;;;;20.89;67.25;101963.06;10411914;28;20408;-78
2022/06/10 20:03:13;;;;;;;13.50;3.33;;;;;;;20.73;67.56;101969.19;10429658;28;20526;-77
2022/06/10 20:08:35;;;;;;;12.60;4.28;;;;;;;20.72;67.94;101970.94;10413152;28;20124;-77
2022/06/10 20:13:37;;;;;;;11.07;3.47;;;;;;;20.74;68.93;101966.56;10417438;28;20040;-77
2022/06/10 20:18:41;;;;;;;6.65;3.50;;;;;;;20.74;68.57;101961.34;10412537;28;20056;-77
2022/06/10 20:23:46;;;;;;;8.63;3.47;;;;;;;20.78;68.80;101967.44;10411872;28;20504;-77
2022/06/10 20:28:49;;;;;;;9.95;3.30;;;;;;;20.41;70.14;101972.59;10413743;28;20199;-77
2022/06/10 20:33:53;;;;;;;9.73;3.60;;;;;;;20.51;70.40;101974.38;10405266;28;20053;-78
2022/06/10 20:38:54;;;;;;;7.68;3.10;;;;;;;20.40;69.88;101968.25;10401486;28;20099;-77
2022/06/10 20:43:56;;;;;;;6.80;3.00;;;;;;;20.63;69.11;101964.78;10406657;28;20091;-77
2022/06/10 20:49:02;;;;;;;9.15;3.53;;;;;;;20.64;68.55;101963.91;10411816;28;20053;-77
2022/06/10 20:54:06;;;;;;;8.30;3.10;;;;;;;20.65;68.74;101966.53;10414223;28;20112;-76
2022/06/10 20:59:07;;;;;;;7.63;3.75;;;;;;;20.49;70.74;101970.88;10402107;28;20084;-76
2022/06/10 21:09:51;;;;;;;8.63;4.15;;;;;;;20.52;71.47;101965.63;10411701;28;20053;-77
2022/06/10 21:14:54;;;;;;;9.50;4.18;;;;;;;20.54;71.99;101971.75;10408483;28;20360;-77
2022/06/10 21:19:55;;;;;;;9.55;4.40;;;;;;;20.39;72.29;101969.09;10410338;28;20083;-77
2022/06/10 21:24:57;;;;;;;11.88;4.82;;;;;;;20.13;73.46;101975.16;10418258;28;20042;-77
2022/06/10 21:30:00;;;;;;;10.38;5.35;;;;;;;20.17;73.42;101978.66;10414014;28;20049;-77
2022/06/10 21:35:26;;;;;;;7.45;4.32;;;;;;;20.00;74.84;101986.44;10413636;28;20039;-76
2022/06/10 21:40:29;;;;;;;7.05;4.75;;;;;;;19.89;75.18;101989.88;10404032;28;20038;-76
2022/06/10 21:45:31;;;;;;;10.27;5.40;;;;;;;19.77;75.23;101995.03;10407394;28;20046;-76
2022/06/10 21:50:46;;;;;;;15.57;6.03;;;;;;;19.56;75.42;102001.88;10439314;28;20054;-77
2022/06/10 21:55:49;;;;;;;10.70;5.78;;;;;;;19.68;75.48;101994.97;10400347;28;20042;-76
2022/06/10 22:01:07;;;;;;;9.32;5.40;;;;;;;19.76;75.35;101993.28;10408765;28;20489;-76
2022/06/10 22:06:32;;;;;;;8.30;5.00;;;;;;;19.74;75.25;101995.00;10408930;28;20049;-76
2022/06/10 22:11:35;;;;;;;12.77;6.05;;;;;;;19.40;76.74;102000.06;10409301;28;20050;-76
2022/06/10 22:16:42;;;;;;;10.57;6.72;;;;;;;19.45;76.83;102004.41;10402648;28;20045;-76
2022/06/10 22:21:46;;;;;;;9.73;6.35;;;;;;;19.63;76.42;102001.03;10410369;28;20111;-76
2022/06/10 22:26:48;;;;;;;11.43;5.82;;;;;;;19.37;77.99;102003.50;10403794;28;20103;-77
2022/06/10 22:31:52;;;;;;;8.27;6.40;;;;;;;19.55;75.93;102005.34;10410842;28;20053;-76
2022/06/10 22:36:55;;;;;;;9.35;6.32;;;;;;;19.65;76.26;102001.94;10409635;28;20159;-76
2022/06/10 22:41:56;;;;;;;9.40;6.05;;;;;;;19.49;76.93;102005.31;10410548;28;20096;-76
2022/06/10 22:47:02;;;;;;;10.07;6.28;;;;;;;19.38;77.18;102004.38;10410566;28;20045;-76
2022/06/10 22:52:13;;;;;;;10.10;7.07;;;;;;;19.36;77.31;102003.50;10409439;28;20041;-76
2022/06/10 22:57:31;;;;;;;14.27;7.45;;;;;;;19.25;76.99;101996.44;10405368;28;20045;-76
2022/06/10 23:02:38;;;;;;;12.90;7.75;;;;;;;19.13;77.86;102007.69;10406725;28;20107;-76
2022/06/10 23:07:44;;;;;;;11.13;7.72;;;;;;;19.07;77.80;102005.00;10408111;28;20069;-76
2022/06/10 23:12:46;;;;;;;9.85;7.22;;;;;;;18.98;77.76;101997.13;10407947;28;20505;-76
2022/06/10 23:17:51;;;;;;;13.63;8.48;;;;;;;18.78;78.79;102009.97;10409569;28;20057;-76
2022/06/10 23:22:54;;;;;;;10.35;7.35;;;;;;;18.76;78.15;102006.47;10409391;28;20048;-76
2022/06/10 23:27:57;;;;;;;13.88;8.32;;;;;;;18.62;79.46;102015.03;10408722;28;20041;-76
2022/06/10 23:33:00;;;;;;;14.02;9.35;;;;;;;18.30;80.21;102006.84;10409104;28;20549;-76
2022/06/10 23:38:15;;;;;;;15.88;8.90;;;;;;;18.46;80.04;102018.34;10404658;28;20107;-76
2022/06/10 23:43:24;;;;;;;14.73;8.98;;;;;;;18.37;80.26;102017.38;10408778;28;20136;-76
2022/06/10 23:53:47;;;;;;;11.45;8.80;;;;;;;18.30;80.20;102015.53;10403519;28;20050;-75
2022/06/10 23:58:55;;;;;;;13.15;8.65;;;;;;;18.14;81.77;102026.66;10405750;28;20103;-76
